Time;durP1;ratioP1;P1;durP2;ratioP2;P2;SDS_P1;SDS_P2;PMS_P1;PMS_P2;Temp;Humidity;BMP_temperature;BMP_pressure;BME280_temperature;BME280_humidity;BME280_pressure;Samples;Min_cycle;Max_cycle;Signal;HPM_P1;HPM_P2
2022/05/29 00:01:58;;;;;;;2.95;1.08;;;15.80;77.20;;;;;;10542220;28;20040;-65
2022/05/29 00:07:00;;;;;;;4.35;1.33;;;15.80;77.30;;;;;;10541548;28;20502;-66
2022/05/29 00:12:03;;;;;;;2.25;0.90;;;15.80;77.40;;;;;;10541706;28;20434;-65
2022/05/29 00:17:04;;;;;;;2.40;1.20;;;15.70;77.40;;;;;;10541506;28;20028;-57
2022/05/29 00:22:06;;;;;;;2.42;1.00;;;15.70;77.40;;;;;;10541070;28;20052;-62
2022/05/29 00:27:07;;;;;;;1.52;0.90;;;15.70;77.50;;;;;;10540690;28;20490;-66
2022/05/29 00:32:08;;;;;;;5.72;1.38;;;15.70;77.50;;;;;;10540796;28;20118;-62
2022/05/29 00:37:11;;;;;;;2.33;0.70;;;15.70;77.60;;;;;;10539494;28;20036;-64
2022/05/29 00:42:15;;;;;;;3.47;1.00;;;15.70;77.70;;;;;;10540497;28;20473;-66
2022/05/29 00:47:21;;;;;;;1.50;0.80;;;15.60;77.70;;;;;;10540165;28;20028;-60
2022/05/29 00:52:25;;;;;;;1.38;1.00;;;15.60;77.70;;;;;;10540127;28;20040;-57
2022/05/29 00:57:31;;;;;;;3.42;0.98;;;15.60;77.80;;;;;;10539873;28;20035;-61
2022/05/29 01:02:32;;;;;;;3.15;0.95;;;15.60;77.80;;;;;;10539754;28;20051;-59
2022/05/29 01:07:33;;;;;;;2.65;0.70;;;15.60;77.80;;;;;;10539334;28;20479;-63
2022/05/29 01:13:18;;;;;;;1.73;0.88;;;15.40;77.80;;;;;;10539032;28;20043;-58
2022/05/29 01:18:37;;;;;;;3.10;0.75;;;15.60;78.20;;;;;;10530096;28;20131;-57
2022/05/29 01:24:09;;;;;;;2.40;0.90;;;15.60;78.00;;;;;;10538465;28;20090;-58
2022/05/29 01:29:18;;;;;;;3.33;0.80;;;15.60;78.20;;;;;;10538530;28;20414;-57
2022/05/29 01:34:22;;;;;;;1.08;0.88;;;15.60;78.10;;;;;;10538176;28;20086;-64
2022/05/29 01:39:51;;;;;;;2.55;0.80;;;15.60;78.20;;;;;;10537767;28;20489;-64
2022/05/29 01:45:01;;;;;;;1.35;0.90;;;15.50;78.40;;;;;;10527871;28;20082;-61
2022/05/29 01:50:08;;;;;;;1.88;0.85;;;15.50;78.40;;;;;;10537478;28;20115;-63
2022/05/29 01:55:28;;;;;;;1.58;0.65;;;15.50;78.50;;;;;;10537480;28;20059;-58
2022/05/29 02:00:28;;;;;;;2.00;0.80;;;15.50;78.50;;;;;;10537462;28;20040;-58
2022/05/29 02:05:39;;;;;;;2.50;1.20;;;15.50;78.50;;;;;;10537365;28;20040;-66
2022/05/29 02:10:48;;;;;;;2.17;0.80;;;15.40;78.50;;;;;;10536942;28;20430;-58
2022/05/29 02:15:58;;;;;;;2.13;1.05;;;15.40;78.60;;;;;;10536886;28;20035;-58
2022/05/29 02:21:04;;;;;;;2.47;0.90;;;15.40;78.60;;;;;;10536866;28;20544;-63
2022/05/29 02:26:08;;;;;;;2.10;0.90;;;15.40;78.70;;;;;;10536573;28;20056;-58
2022/05/29 02:31:26;;;;;;;1.77;0.93;;;15.40;78.70;;;;;;10536165;28;20044;-59
2022/05/29 02:36:35;;;;;;;2.42;0.90;;;15.40;78.80;;;;;;10536473;28;20076;-65
2022/05/29 02:41:38;;;;;;;;;;;15.30;78.80;;;;;;10536443;28;20047;-57
2022/05/29 02:46:56;;;;;;;2.47;1.35;;;15.30;79.00;;;;;;10536327;28;19904;-58
2022/05/29 02:52:01;;;;;;;2.05;1.20;;;15.30;78.80;;;;;;10536037;28;20067;-63
2022/05/29 02:57:03;;;;;;;3.38;1.20;;;15.30;78.70;;;;;;10536173;28;20488;-58
2022/05/29 03:02:12;;;;;;;3.10;1.13;;;15.30;78.70;;;;;;10540095;28;20111;-59
2022/05/29 03:07:49;;;;;;;2.17;1.45;;;15.20;78.70;;;;;;10544984;28;20419;-58
2022/05/29 03:13:05;;;;;;;2.90;0.90;;;15.20;78.90;;;;;;10543995;28;20105;-65
2022/05/29 03:18:20;;;;;;;7.57;0.95;;;15.20;78.90;;;;;;10543718;28;20055;-57
2022/05/29 03:23:27;;;;;;;2.67;1.00;;;15.20;78.90;;;;;;10543449;28;20043;-58
2022/05/29 03:28:54;;;;;;;3.03;1.02;;;15.20;78.90;;;;;;10543490;28;20028;-64
2022/05/29 03:33:56;;;;;;;2.47;1.00;;;15.20;78.90;;;;;;10543068;28;20032;-64
2022/05/29 03:38:57;;;;;;;3.10;1.25;;;15.20;78.90;;;;;;10542892;28;20072;-60
2022/05/29 03:43:58;;;;;;;3.22;1.10;;;15.20;78.90;;;;;;10542765;28;20098;-58
2022/05/29 03:48:58;;;;;;;3.67;1.35;;;15.20;78.90;;;;;;10542415;28;20032;-58
2022/05/29 03:54:00;;;;;;;2.58;1.20;;;15.20;78.90;;;;;;10542341;28;20063;-66
2022/05/29 03:59:01;;;;;;;2.33;0.98;;;15.20;78.90;;;;;;10542264;28;20116;-66
2022/05/29 04:04:02;;;;;;;3.92;1.00;;;15.20;79.00;;;;;;10541983;28;20051;-60
2022/05/29 04:14:23;;;;;;;2.35;0.88;;;15.20;79.00;;;;;;10541709;28;20036;-66
2022/05/29 04:19:24;;;;;;;2.95;1.10;;;15.10;79.00;;;;;;10541498;28;20028;-57
2022/05/29 04:24:25;;;;;;;2.80;0.90;;;15.10;79.00;;;;;;10541194;28;20040;-64
2022/05/29 04:29:26;;;;;;;3.13;1.20;;;15.10;79.00;;;;;;10540820;28;20028;-62
2022/05/29 04:34:27;;;;;;;3.10;1.20;;;15.10;79.70;;;;;;10540724;28;20156;-58
2022/05/29 04:39:29;;;;;;;5.75;1.20;;;15.10;79.20;;;;;;10540388;28;20484;-66
2022/05/29 04:44:30;;;;;;;1.95;0.82;;;15.10;79.20;;;;;;10540348;28;20052;-58
2022/05/29 04:49:31;;;;;;;2.95;1.00;;;15.10;79.20;;;;;;10540197;28;20043;-66
2022/05/29 04:54:37;;;;;;;2.08;0.90;;;15.10;79.20;;;;;;10539728;28;20046;-60
2022/05/29 04:59:38;;;;;;;2.30;1.05;;;15.10;79.20;;;;;;10539694;28;20046;-64
2022/05/29 05:04:39;;;;;;;3.67;1.17;;;15.10;79.20;;;;;;10539632;28;20046;-64
2022/05/29 05:09:40;;;;;;;3.65;0.80;;;15.10;79.10;;;;;;10539431;28;20037;-65
2022/05/29 05:14:41;;;;;;;2.80;1.20;;;15.10;79.20;;;;;;10539336;28;20132;-58
2022/05/29 05:19:41;;;;;;;2.45;0.95;;;15.10;79.20;;;;;;10538878;28;20025;-58
2022/05/29 05:24:42;;;;;;;2.83;0.88;;;15.10;79.20;;;;;;10538342;28;20048;-58
2022/05/29 05:29:43;;;;;;;2.63;0.90;;;15.10;79.20;;;;;;10538435;28;20038;-65
2022/05/29 05:34:44;;;;;;;4.75;0.90;;;15.10;79.20;;;;;;10538136;28;20488;-59
2022/05/29 05:39:45;;;;;;;1.80;0.88;;;15.10;79.80;;;;;;10538245;28;20051;-59
2022/05/29 05:44:48;;;;;;;2.88;1.00;;;15.10;79.20;;;;;;10537858;28;20074;-66
2022/05/29 05:49:49;;;;;;;3.33;0.80;;;15.10;79.30;;;;;;10538017;28;20044;-65
2022/05/29 05:54:50;;;;;;;4.55;1.30;;;15.10;79.20;;;;;;10537602;28;20062;-58
2022/05/29 05:59:51;;;;;;;2.78;0.75;;;15.10;79.20;;;;;;10537480;28;20491;-61
2022/05/29 06:04:51;;;;;;;1.50;0.98;;;15.20;79.30;;;;;;10537497;28;20131;-65
2022/05/29 06:09:52;;;;;;;3.20;1.30;;;15.20;79.20;;;;;;10537241;28;20039;-57
2022/05/29 06:14:54;;;;;;;3.70;0.90;;;15.20;79.10;;;;;;10536883;28;20503;-59
2022/05/29 06:19:55;;;;;;;2.53;1.10;;;15.30;79.00;;;;;;10536832;28;20169;-58
2022/05/29 06:24:56;;;;;;;1.77;0.70;;;15.30;79.00;;;;;;10536610;28;20535;-62
2022/05/29 06:29:57;;;;;;;4.10;0.90;;;15.30;78.90;;;;;;10536538;28;20082;-64
2022/05/29 06:34:58;;;;;;;1.75;0.82;;;15.30;78.90;;;;;;10535207;28;20117;-58
2022/05/29 06:39:58;;;;;;;3.75;1.13;;;15.40;78.90;;;;;;10536416;28;20060;-65
2022/05/29 06:44:59;;;;;;;2.95;0.90;;;15.40;78.80;;;;;;10535965;28;20028;-63
2022/05/29 06:50:00;;;;;;;2.92;0.90;;;15.40;78.90;;;;;;10536091;28;20115;-60
2022/05/29 06:55:02;;;;;;;6.25;1.38;;;15.40;78.90;;;;;;10536394;28;20136;-58
2022/05/29 07:10:39;;;;;;;5.10;1.17;;;15.30;79.70;;;;;;10536105;28;20409;-57
2022/05/29 07:15:40;;;;;;;2.35;1.13;;;15.30;79.20;;;;;;10535997;28;20025;-58
2022/05/29 07:20:41;;;;;;;3.53;0.90;;;15.30;79.20;;;;;;10535654;28;20024;-59
2022/05/29 07:25:42;;;;;;;4.25;1.00;;;15.30;79.10;;;;;;10535332;28;20075;-58
2022/05/29 07:30:43;;;;;;;3.38;0.90;;;15.30;79.10;;;;;;10535418;28;20558;-62
2022/05/29 07:35:44;;;;;;;3.13;0.80;;;15.30;79.00;;;;;;10535051;28;20138;-59
2022/05/29 07:40:45;;;;;;;4.15;1.02;;;15.40;79.10;;;;;;10534815;28;20127;-66
2022/05/29 07:45:48;;;;;;;2.78;1.05;;;15.40;79.00;;;;;;10535231;28;20521;-61
2022/05/29 07:50:49;;;;;;;7.22;1.10;;;15.40;79.20;;;;;;10542455;28;20115;-67
2022/05/29 07:55:50;;;;;;;2.42;0.90;;;15.40;79.20;;;;;;10542016;28;20055;-66
2022/05/29 08:00:51;;;;;;;4.90;1.27;;;15.40;79.20;;;;;;10541953;28;20029;-65
2022/05/29 08:05:52;;;;;;;3.83;0.90;;;15.40;79.20;;;;;;10542073;28;20032;-57
2022/05/29 08:10:52;;;;;;;3.92;1.20;;;15.40;79.30;;;;;;10541531;28;20036;-66
2022/05/29 08:15:53;;;;;;;4.28;1.13;;;15.40;79.30;;;;;;10541209;28;20518;-61
2022/05/29 08:20:55;;;;;;;3.25;0.75;;;15.40;79.20;;;;;;10540912;28;20066;-66
2022/05/29 08:31:15;;;;;;;2.78;0.90;;;15.40;79.10;;;;;;10540947;28;20094;-62
2022/05/29 08:36:24;;;;;;;3.03;0.75;;;15.50;79.00;;;;;;10540716;28;20047;-65
2022/05/29 08:41:43;;;;;;;2.30;0.90;;;15.50;78.90;;;;;;10540247;28;20483;-66
2022/05/29 08:46:52;;;;;;;2.33;0.50;;;15.60;79.00;;;;;;10540563;28;20047;-65
2022/05/29 08:52:23;;;;;;;4.65;1.35;;;15.60;78.90;;;;;;10540126;28;20028;-61
2022/05/29 08:57:30;;;;;;;3.08;0.98;;;15.60;79.00;;;;;;10539514;28;20423;-61
2022/05/29 09:02:43;;;;;;;1.40;0.60;;;15.70;78.80;;;;;;10539684;28;20052;-59
2022/05/29 09:07:45;;;;;;;2.58;0.57;;;15.70;78.70;;;;;;10539529;28;20059;-60
2022/05/29 09:12:50;;;;;;;3.33;0.73;;;15.80;78.50;;;;;;10539183;28;20066;-65
2022/05/29 09:17:54;;;;;;;2.20;0.50;;;15.80;78.40;;;;;;10539018;28;20036;-58
2022/05/29 09:23:00;;;;;;;3.13;0.70;;;15.90;78.20;;;;;;10538668;28;20039;-58
2022/05/29 09:28:03;;;;;;;2.30;0.80;;;15.90;78.10;;;;;;10538779;28;20031;-60
2022/05/29 09:33:17;;;;;;;2.42;0.75;;;16.00;78.10;;;;;;10538451;28;20533;-57
2022/05/29 09:38:35;;;;;;;2.45;0.70;;;16.00;78.00;;;;;;10538195;28;20040;-63
2022/05/29 09:43:36;;;;;;;1.92;0.73;;;16.00;78.00;;;;;;10537861;28;20042;-60
2022/05/29 09:54:04;;;;;;;1.35;0.60;;;16.10;77.90;;;;;;10537511;28;20032;-67
2022/05/29 09:59:18;;;;;;;1.08;0.47;;;16.10;77.90;;;;;;10537285;28;20047;-63
2022/05/29 10:04:29;;;;;;;2.50;0.60;;;16.20;77.80;;;;;;10537260;28;20047;-66
2022/05/29 10:09:31;;;;;;;3.42;0.50;;;16.10;78.40;;;;;;10537184;28;20488;-65
2022/05/29 10:14:37;;;;;;;2.50;0.68;;;16.20;77.80;;;;;;10537006;28;20040;-61
2022/05/29 10:19:44;;;;;;;1.75;0.50;;;16.20;77.70;;;;;;10536779;28;20108;-61
2022/05/29 10:24:45;;;;;;;3.15;0.80;;;16.30;77.80;;;;;;10536473;28;20044;-64
2022/05/29 10:29:53;;;;;;;1.75;0.38;;;16.30;77.70;;;;;;10536374;28;20107;-61
2022/05/29 10:35:17;;;;;;;1.35;0.55;;;16.30;77.70;;;;;;10536137;28;20392;-66
2022/05/29 10:40:28;;;;;;;1.95;0.43;;;16.30;77.70;;;;;;10532517;28;20484;-58
2022/05/29 10:45:35;;;;;;;2.10;0.60;;;16.30;77.70;;;;;;10535858;28;20040;-66
2022/05/29 10:51:04;;;;;;;1.52;0.55;;;16.30;77.60;;;;;;10535925;28;20456;-63
2022/05/29 10:56:46;;;;;;;2.10;0.50;;;16.40;77.60;;;;;;10535952;28;20036;-59
2022/05/29 11:07:42;;;;;;;2.38;0.35;;;16.30;77.60;;;;;;10535874;28;20036;-65
2022/05/29 11:13:04;;;;;;;0.80;0.50;;;16.20;77.70;;;;;;10535565;28;20040;-66
2022/05/29 11:18:13;;;;;;;1.27;0.70;;;16.20;78.00;;;;;;10535450;28;20106;-66
2022/05/29 11:23:33;;;;;;;1.50;0.55;;;16.20;78.00;;;;;;10539748;28;20058;-66
2022/05/29 11:28:59;;;;;;;2.35;0.57;;;16.20;78.00;;;;;;10543396;28;20046;-59
2022/05/29 11:34:38;;;;;;;2.45;0.50;;;16.20;77.90;;;;;;10543223;28;20028;-60
2022/05/29 11:39:47;;;;;;;0.63;0.40;;;16.30;77.60;;;;;;10542901;28;20518;-65
2022/05/29 11:45:00;;;;;;;1.35;0.50;;;16.30;77.70;;;;;;10542526;28;20062;-60
2022/05/29 11:55:32;;;;;;;3.40;0.50;;;16.20;77.80;;;;;;10542462;28;20518;-59
2022/05/29 12:00:42;;;;;;;1.73;0.40;;;16.20;77.80;;;;;;10542799;28;20032;-63
2022/05/29 12:05:48;;;;;;;2.20;1.05;;;16.20;77.70;;;;;;10541946;28;20553;-59
2022/05/29 12:11:25;;;;;;;1.08;0.55;;;16.30;77.60;;;;;;10541897;28;20059;-65
2022/05/29 12:16:31;;;;;;;2.08;0.68;;;16.30;77.40;;;;;;10541507;28;20036;-66
2022/05/29 12:21:45;;;;;;;0.68;0.40;;;16.30;77.40;;;;;;10541216;28;20403;-61
2022/05/29 12:26:49;;;;;;;2.53;0.57;;;16.30;77.50;;;;;;10541001;28;20051;-59
2022/05/29 12:32:02;;;;;;;3.72;1.05;;;16.30;77.30;;;;;;10540724;28;20373;-64
2022/05/29 12:37:22;;;;;;;1.95;0.50;;;16.30;77.30;;;;;;10539755;28;20051;-61
2022/05/29 12:42:48;;;;;;;1.63;0.57;;;16.30;77.30;;;;;;10540465;28;20040;-57
2022/05/29 12:47:51;;;;;;;1.17;0.43;;;16.30;77.40;;;;;;10540157;28;20120;-64
2022/05/29 12:53:20;;;;;;;3.42;0.75;;;16.30;77.50;;;;;;10540136;28;20040;-63
2022/05/29 12:58:38;;;;;;;1.17;0.60;;;16.30;77.30;;;;;;10539995;28;20135;-59
2022/05/29 13:03:58;;;;;;;;;;;16.30;77.30;;;;;;10539819;28;20493;-65
2022/05/29 13:09:10;;;;;;;1.17;0.40;;;16.30;77.10;;;;;;10539432;28;19907;-60
2022/05/29 13:14:11;;;;;;;1.73;0.55;;;16.30;77.40;;;;;;10539549;28;20028;-61
2022/05/29 13:19:19;;;;;;;2.67;0.70;;;16.30;77.40;;;;;;10539058;28;20036;-58
2022/05/29 13:24:23;;;;;;;1.38;0.80;;;16.30;77.30;;;;;;10538868;28;20073;-59
2022/05/29 13:29:42;;;;;;;1.95;0.50;;;16.40;77.10;;;;;;10538520;28;20020;-65
2022/05/29 13:34:50;;;;;;;;;;;16.50;76.90;;;;;;10538625;28;20038;-58
2022/05/29 13:40:00;;;;;;;1.17;0.50;;;16.50;76.80;;;;;;10538500;28;20388;-60
2022/05/29 13:45:23;;;;;;;2.22;0.60;;;16.40;76.90;;;;;;10537429;28;20044;-66
2022/05/29 13:50:32;;;;;;;2.05;0.70;;;16.30;76.90;;;;;;10537611;28;20127;-63
2022/05/29 13:55:33;;;;;;;2.13;0.70;;;16.30;77.30;;;;;;10537471;28;20024;-60
2022/05/29 14:06:22;;;;;;;2.70;0.63;;;16.20;77.40;;;;;;10537282;28;20051;-61
2022/05/29 14:11:51;;;;;;;5.70;0.83;;;16.20;77.50;;;;;;10536862;28;20028;-58
2022/05/29 14:16:54;;;;;;;0.82;0.52;;;16.30;77.40;;;;;;10536105;28;20531;-58
2022/05/29 14:22:13;;;;;;;2.58;0.73;;;16.30;77.50;;;;;;10536492;28;20052;-58
2022/05/29 14:28:04;;;;;;;1.88;0.68;;;16.30;77.30;;;;;;10536090;28;20447;-65
2022/05/29 14:33:27;;;;;;;1.55;0.60;;;16.30;77.20;;;;;;10535973;28;20032;-58
2022/05/29 14:38:42;;;;;;;2.60;0.50;;;16.30;77.40;;;;;;10535917;28;20059;-62
2022/05/29 14:43:43;;;;;;;3.17;0.70;;;16.30;77.30;;;;;;10535673;28;20047;-57
2022/05/29 14:49:11;;;;;;;2.28;0.80;;;16.20;77.30;;;;;;10535207;28;20082;-58
2022/05/29 14:54:39;;;;;;;1.67;0.68;;;16.20;77.20;;;;;;10535876;28;20032;-60
2022/05/29 14:59:39;;;;;;;1.52;0.40;;;16.30;77.30;;;;;;10543069;28;20056;-61
2022/05/29 15:04:41;;;;;;;2.05;0.60;;;16.20;77.30;;;;;;10544363;28;20075;-59
2022/05/29 15:15:27;;;;;;;2.58;0.60;;;16.20;77.40;;;;;;10543943;28;20024;-63
2022/05/29 15:26:10;;;;;;;3.08;0.80;;;16.10;77.60;;;;;;10542859;28;20036;-58
2022/05/29 15:31:19;;;;;;;1.25;0.50;;;16.00;77.50;;;;;;10542949;28;20024;-58
2022/05/29 15:36:44;;;;;;;2.88;0.75;;;16.00;77.70;;;;;;10540375;28;20512;-58
2022/05/29 15:41:52;;;;;;;4.25;0.70;;;16.00;77.70;;;;;;10542538;28;20473;-65
2022/05/29 15:47:17;;;;;;;1.73;0.50;;;16.00;77.70;;;;;;10542571;28;20040;-64
2022/05/29 15:52:38;;;;;;;2.30;0.70;;;16.10;77.80;;;;;;10538488;28;20492;-65
2022/05/29 15:57:46;;;;;;;1.73;0.60;;;16.10;77.70;;;;;;10542125;28;20020;-66
2022/05/29 16:02:46;;;;;;;5.27;1.43;;;16.10;77.70;;;;;;10542130;28;20103;-59
2022/05/29 16:07:48;;;;;;;2.78;0.60;;;16.10;77.70;;;;;;10541485;28;20115;-59
2022/05/29 16:12:59;;;;;;;2.53;0.70;;;16.10;77.60;;;;;;10541938;28;20097;-66
2022/05/29 16:18:27;;;;;;;3.05;0.90;;;16.10;77.60;;;;;;10541379;28;20457;-66
2022/05/29 16:23:57;;;;;;;2.50;0.70;;;16.00;77.40;;;;;;10541218;28;20571;-58
2022/05/29 16:29:31;;;;;;;1.98;0.68;;;16.00;77.40;;;;;;10541025;28;20036;-57
2022/05/29 16:34:42;;;;;;;5.50;0.90;;;16.00;77.30;;;;;;10540847;28;20043;-59
2022/05/29 16:50:29;;;;;;;4.60;0.80;;;16.00;77.30;;;;;;10540403;28;20020;-63
2022/05/29 16:55:34;;;;;;;3.30;0.80;;;16.10;77.30;;;;;;10539917;28;20162;-60
2022/05/29 17:00:54;;;;;;;4.20;1.38;;;16.10;77.30;;;;;;10539575;28;20024;-63
2022/05/29 17:05:56;;;;;;;3.85;0.80;;;16.00;77.20;;;;;;10539214;28;20499;-63
2022/05/29 17:11:00;;;;;;;4.60;0.80;;;16.00;77.30;;;;;;10539563;28;20044;-65
2022/05/29 17:16:01;;;;;;;2.83;0.80;;;16.00;77.40;;;;;;10539217;28;20476;-59
2022/05/29 17:21:08;;;;;;;3.17;0.85;;;16.00;77.50;;;;;;10538005;28;20044;-60
2022/05/29 17:26:17;;;;;;;1.90;0.75;;;15.90;77.50;;;;;;10538989;28;20039;-60
2022/05/29 17:31:24;;;;;;;1.95;0.60;;;15.90;77.50;;;;;;10538424;28;20047;-59
2022/05/29 17:36:33;;;;;;;2.33;1.02;;;15.90;77.50;;;;;;10538318;28;20451;-58
2022/05/29 17:41:35;;;;;;;3.28;0.75;;;15.90;77.50;;;;;;10537785;28;20044;-63
2022/05/29 17:46:45;;;;;;;3.17;1.13;;;15.90;77.50;;;;;;10538076;28;20040;-59
2022/05/29 17:51:59;;;;;;;2.75;0.90;;;15.90;77.50;;;;;;10537448;28;20040;-62
2022/05/29 17:57:01;;;;;;;3.88;0.73;;;15.90;77.70;;;;;;10537512;28;20032;-62
2022/05/29 18:02:03;;;;;;;3.38;0.98;;;15.80;77.80;;;;;;10537397;28;20054;-62
2022/05/29 18:07:08;;;;;;;2.58;0.77;;;15.80;78.10;;;;;;10537471;28;20032;-64
2022/05/29 18:12:18;;;;;;;1.58;0.68;;;15.80;78.20;;;;;;10536830;28;20043;-59
2022/05/29 18:17:19;;;;;;;2.35;0.88;;;15.80;78.20;;;;;;10536612;28;20032;-67
2022/05/29 18:22:20;;;;;;;1.48;0.73;;;15.80;78.20;;;;;;10536402;28;20047;-67
2022/05/29 18:27:21;;;;;;;4.60;0.90;;;15.80;78.40;;;;;;10536606;28;20039;-61
2022/05/29 18:32:23;;;;;;;2.25;0.90;;;15.70;78.30;;;;;;10536210;28;20486;-61
2022/05/29 18:37:24;;;;;;;2.55;0.70;;;15.70;78.30;;;;;;10536002;28;20135;-59
2022/05/29 18:42:25;;;;;;;2.53;1.00;;;15.70;78.40;;;;;;10535903;28;20044;-67
2022/05/29 18:47:27;;;;;;;3.80;0.90;;;15.60;78.30;;;;;;10535933;28;20063;-67
2022/05/29 18:52:28;;;;;;;5.40;1.35;;;15.60;78.40;;;;;;10535912;28;20122;-65
2022/05/29 18:57:29;;;;;;;2.70;0.90;;;15.60;78.40;;;;;;10535963;28;20479;-61
2022/05/29 19:02:35;;;;;;;3.70;0.80;;;15.50;78.30;;;;;;10535542;28;20040;-61
2022/05/29 19:07:36;;;;;;;3.42;1.00;;;15.50;78.30;;;;;;10535350;28;20070;-66
2022/05/29 19:12:36;;;;;;;4.00;1.10;;;15.50;78.30;;;;;;10535405;28;20566;-64
2022/05/29 19:22:57;;;;;;;3.67;1.42;;;15.50;78.30;;;;;;10535276;28;20036;-63
2022/05/29 19:27:58;;;;;;;3.08;1.15;;;15.40;78.20;;;;;;10534852;28;20123;-64
2022/05/29 19:33:00;;;;;;;3.85;1.05;;;15.40;78.20;;;;;;10534859;28;20504;-67
2022/05/29 19:38:00;;;;;;;5.07;1.35;;;15.40;78.20;;;;;;10534891;28;20043;-64
2022/05/29 19:43:02;;;;;;;6.30;1.10;;;15.40;78.20;;;;;;10537201;28;20044;-64
2022/05/29 19:48:03;;;;;;;5.70;1.10;;;15.40;78.30;;;;;;10542524;28;20067;-64
2022/05/29 19:53:04;;;;;;;2.65;1.30;;;15.30;78.20;;;;;;10542155;28;20055;-67
2022/05/29 19:58:04;;;;;;;2.17;0.90;;;15.30;78.20;;;;;;10542149;28;20036;-58
2022/05/29 20:03:05;;;;;;;5.07;1.00;;;15.30;78.30;;;;;;10541759;28;20135;-66
2022/05/29 20:08:06;;;;;;;3.65;1.00;;;15.30;78.30;;;;;;10541900;28;20024;-65
2022/05/29 20:13:07;;;;;;;3.53;0.80;;;15.30;78.30;;;;;;10541942;28;20043;-63
2022/05/29 20:18:07;;;;;;;3.95;0.93;;;15.20;78.20;;;;;;10541190;28;20040;-65
2022/05/29 20:23:08;;;;;;;2.63;0.98;;;15.20;78.20;;;;;;10540993;28;20078;-66
2022/05/29 20:28:09;;;;;;;2.55;0.90;;;15.20;78.30;;;;;;10540953;28;20024;-63
2022/05/29 20:33:09;;;;;;;2.20;0.85;;;15.20;78.30;;;;;;10541021;28;20039;-66
2022/05/29 20:38:11;;;;;;;3.10;1.55;;;15.20;78.40;;;;;;10540646;28;20040;-65
2022/05/29 20:43:12;;;;;;;3.13;1.17;;;15.20;78.30;;;;;;10540203;28;20039;-59
2022/05/29 20:48:13;;;;;;;5.03;1.00;;;15.10;78.30;;;;;;10540497;28;20059;-68
2022/05/29 20:53:14;;;;;;;6.75;1.40;;;15.10;78.30;;;;;;10539615;28;20514;-62
2022/05/29 20:58:14;;;;;;;2.63;0.88;;;15.10;78.30;;;;;;10539603;28;20043;-65
2022/05/29 21:03:15;;;;;;;4.13;0.93;;;15.10;78.30;;;;;;10539937;28;20040;-66
2022/05/29 21:08:16;;;;;;;2.28;0.75;;;15.10;78.30;;;;;;10539320;28;20119;-65
2022/05/29 21:13:16;;;;;;;3.40;1.23;;;15.00;78.20;;;;;;10539061;28;20127;-60
2022/05/29 21:18:17;;;;;;;2.20;0.82;;;15.00;78.20;;;;;;10538874;28;20126;-61
2022/05/29 21:23:18;;;;;;;4.80;1.02;;;15.00;78.10;;;;;;10538679;28;20036;-58
2022/05/29 21:28:19;;;;;;;3.00;0.70;;;14.90;78.00;;;;;;10538842;28;20032;-66
2022/05/29 21:33:19;;;;;;;3.95;1.30;;;14.90;78.00;;;;;;10538466;28;20036;-59
2022/05/29 21:38:20;;;;;;;4.18;0.98;;;14.90;78.00;;;;;;10538361;28;20055;-68
2022/05/29 21:43:21;;;;;;;3.97;1.10;;;14.90;78.00;;;;;;10537662;28;20119;-58
2022/05/29 21:48:22;;;;;;;1.58;1.00;;;14.80;78.00;;;;;;10536795;28;20115;-63
2022/05/29 21:53:25;;;;;;;3.85;0.93;;;14.80;78.00;;;;;;10536499;28;20123;-62
2022/05/29 21:58:25;;;;;;;4.78;0.85;;;14.80;78.00;;;;;;10537721;28;20047;-63
2022/05/29 22:03:28;;;;;;;3.45;0.90;;;14.80;78.00;;;;;;10537340;28;20048;-61
2022/05/29 22:08:29;;;;;;;1.90;0.60;;;14.80;77.90;;;;;;10537130;28;20089;-58
2022/05/29 22:13:30;;;;;;;1.83;0.80;;;14.70;77.90;;;;;;10537288;28;20534;-61
2022/05/29 22:18:31;;;;;;;2.90;0.90;;;14.70;77.90;;;;;;10537377;28;20100;-60
2022/05/29 22:23:33;;;;;;;4.53;1.13;;;14.80;77.90;;;;;;10536809;28;20046;-63
2022/05/29 22:28:34;;;;;;;2.42;0.70;;;14.70;77.90;;;;;;10537015;28;20047;-65
2022/05/29 22:33:36;;;;;;;4.25;0.80;;;14.60;77.80;;;;;;10536840;28;20040;-65
2022/05/29 22:38:37;;;;;;;1.85;0.85;;;14.60;77.80;;;;;;10536453;28;20046;-62
2022/05/29 22:43:40;;;;;;;3.05;0.90;;;14.60;77.80;;;;;;10536314;28;20044;-58
2022/05/29 22:48:53;;;;;;;2.90;1.20;;;14.60;77.80;;;;;;10536098;28;20040;-61
2022/05/29 22:53:58;;;;;;;2.63;1.00;;;14.50;77.80;;;;;;10536206;28;20489;-59
2022/05/29 22:58:59;;;;;;;1.50;0.63;;;14.50;77.80;;;;;;10535991;28;20416;-64
2022/05/29 23:04:17;;;;;;;2.25;0.80;;;14.50;77.80;;;;;;10536218;28;20059;-60
2022/05/29 23:09:18;;;;;;;1.75;0.70;;;14.50;77.70;;;;;;10536127;28;20081;-58
2022/05/29 23:14:18;;;;;;;3.33;1.00;;;14.50;77.80;;;;;;10534585;28;20036;-64
2022/05/29 23:19:19;;;;;;;2.35;0.82;;;14.50;77.80;;;;;;10540162;28;20032;-66
2022/05/29 23:24:23;;;;;;;2.92;1.17;;;14.50;77.70;;;;;;10544211;28;20420;-64
2022/05/29 23:30:05;;;;;;;3.38;0.82;;;14.50;77.70;;;;;;10543937;28;20495;-65
2022/05/29 23:34:45;;;;;;;4.45;0.82;;;14.50;77.80;;;;;;10543748;28;20063;-64
2022/05/29 23:39:48;;;;;;;2.25;0.82;;;14.50;77.70;;;;;;10543327;28;20425;-64
2022/05/29 23:45:16;;;;;;;2.38;1.05;;;14.40;77.70;;;;;;10543416;28;20044;-63
2022/05/29 23:50:17;;;;;;;1.73;0.70;;;14.40;77.60;;;;;;10534767;28;20036;-61
2022/05/29 23:55:18;;;;;;;1.73;0.90;;;14.40;77.70;;;;;;10542752;28;20182;-60
